createdAt,value
2022-07-26T00:00:40.313Z,62.86
2022-07-26T00:01:40.324Z,62.46
2022-07-26T00:02:47.321Z,63.33
2022-07-26T00:03:41.216Z,63.53
2022-07-26T00:04:40.185Z,62.46
2022-07-26T00:05:40.225Z,62.43
2022-07-26T00:06:40.181Z,63.13
2022-07-26T00:07:40.173Z,62.83
2022-07-26T00:08:40.151Z,62.63
2022-07-26T00:09:43.786Z,62.23
2022-07-26T00:10:41.150Z,63.13
2022-07-26T00:11:40.128Z,62.93
2022-07-26T00:12:40.110Z,62.83
2022-07-26T00:13:40.107Z,63.23
2022-07-26T00:14:40.100Z,62.53
2022-07-26T00:15:40.102Z,62.43
2022-07-26T00:16:40.188Z,62.73
2022-07-26T00:17:40.069Z,62.43
2022-07-26T00:18:40.089Z,63.23
2022-07-26T00:19:40.047Z,63.43
2022-07-26T00:20:40.054Z,63.33
2022-07-26T00:21:40.881Z,63.33
2022-07-26T00:22:40.025Z,62.73
2022-07-26T00:23:40.004Z,62.93
2022-07-26T00:24:39.993Z,63.13
2022-07-26T00:25:40.005Z,63.13
2022-07-26T00:26:39.976Z,63.43
2022-07-26T00:27:39.964Z,62.43
2022-07-26T00:28:39.952Z,62.53
2022-07-26T00:29:39.951Z,62.53
2022-07-26T00:30:39.955Z,62.53
2022-07-26T00:31:39.974Z,62.53
2022-07-26T00:32:39.911Z,62.63
2022-07-26T00:33:39.913Z,63.26
2022-07-26T00:34:39.911Z,63.53
2022-07-26T00:35:39.900Z,63.26
2022-07-26T00:36:41.822Z,62.96
2022-07-26T00:37:39.864Z,62.96
2022-07-26T00:38:39.858Z,62.66
2022-07-26T00:39:39.848Z,62.36
2022-07-26T00:40:39.851Z,63.46
2022-07-26T00:41:39.892Z,63.87
2022-07-26T00:42:39.813Z,63.87
2022-07-26T00:43:39.804Z,63.46
2022-07-26T00:44:39.793Z,62.89
2022-07-26T00:45:39.843Z,63.96
2022-07-26T00:46:39.819Z,64.47
2022-07-26T00:47:39.766Z,64.60
2022-07-26T00:48:39.788Z,65.00
2022-07-26T00:49:39.748Z,64.80
2022-07-26T00:50:39.754Z,65.41
2022-07-26T00:51:39.729Z,65.41
2022-07-26T00:52:39.711Z,64.47
2022-07-26T00:53:39.709Z,64.77
2022-07-26T00:54:39.711Z,65.41
2022-07-26T00:55:39.699Z,65.41
2022-07-26T00:56:39.685Z,65.41
2022-07-26T00:57:39.672Z,65.37
2022-07-26T00:58:39.663Z,65.47
2022-07-26T00:59:39.648Z,65.47
2022-07-26T01:00:39.645Z,65.47
2022-07-26T01:01:39.769Z,65.17
2022-07-26T01:02:39.699Z,65.47
2022-07-26T01:03:39.994Z,65.27
2022-07-26T01:04:39.598Z,65.07
2022-07-26T01:05:39.602Z,64.97
2022-07-26T01:06:39.581Z,64.97
2022-07-26T01:07:39.573Z,65.60
2022-07-26T01:08:39.546Z,64.80
2022-07-26T01:09:39.551Z,65.41
2022-07-26T01:10:39.555Z,64.80
2022-07-26T01:11:39.525Z,65.00
2022-07-26T01:12:39.505Z,65.30
2022-07-26T01:13:39.509Z,64.80
2022-07-26T01:14:39.499Z,65.60
2022-07-26T01:15:39.547Z,66.24
2022-07-26T01:16:39.524Z,66.41
2022-07-26T01:17:39.460Z,66.20
2022-07-26T01:18:39.462Z,66.20
2022-07-26T01:19:39.459Z,66.41
2022-07-26T01:20:39.458Z,66.11
2022-07-26T01:21:39.425Z,65.91
2022-07-26T01:22:39.422Z,65.60
2022-07-26T01:23:39.419Z,65.80
2022-07-26T01:24:39.400Z,65.97
2022-07-26T01:25:42.397Z,65.77
2022-07-26T01:26:39.373Z,65.47
2022-07-26T01:27:39.723Z,65.47
2022-07-26T01:28:39.365Z,65.67
2022-07-26T01:29:39.343Z,65.47
2022-07-26T01:30:39.360Z,64.70
2022-07-26T01:31:39.387Z,64.87
2022-07-26T01:32:39.454Z,65.07
2022-07-26T01:33:39.308Z,65.07
2022-07-26T01:34:39.303Z,65.17
2022-07-26T01:35:39.303Z,65.17
2022-07-26T01:36:39.704Z,65.17
2022-07-26T01:37:39.272Z,65.07
2022-07-26T01:38:39.254Z,65.17
2022-07-26T01:39:39.249Z,65.41
2022-07-26T01:40:39.257Z,65.00
2022-07-26T01:41:39.218Z,64.77
2022-07-26T01:42:39.219Z,64.90
2022-07-26T01:43:39.210Z,65.41
2022-07-26T01:44:39.200Z,65.30
2022-07-26T01:45:39.426Z,65.60
2022-07-26T01:46:39.184Z,65.41
2022-07-26T01:47:39.172Z,65.70
2022-07-26T01:48:39.213Z,65.00
2022-07-26T01:49:39.138Z,64.40
2022-07-26T01:50:39.176Z,64.80
2022-07-26T01:51:39.139Z,65.00
2022-07-26T01:52:39.127Z,65.10
2022-07-26T01:53:39.126Z,65.10
2022-07-26T01:54:39.102Z,65.00
2022-07-26T01:55:39.093Z,65.64
2022-07-26T01:56:39.097Z,65.64
2022-07-26T01:57:39.069Z,66.54
2022-07-26T01:58:39.057Z,66.14
2022-07-26T01:59:39.051Z,66.41
2022-07-26T02:00:39.074Z,66.03
2022-07-26T02:01:40.401Z,66.24
2022-07-26T02:02:39.165Z,66.34
2022-07-26T02:03:39.018Z,66.54
2022-07-26T02:04:39.008Z,66.34
2022-07-26T02:05:38.980Z,65.94
2022-07-26T02:06:39.005Z,66.34
2022-07-26T02:07:38.972Z,66.03
2022-07-26T02:08:38.963Z,66.84
2022-07-26T02:09:39.981Z,66.64
2022-07-26T02:10:38.949Z,67.24
2022-07-26T02:11:38.957Z,67.35
2022-07-26T02:12:38.930Z,67.88
2022-07-26T02:13:38.914Z,67.98
2022-07-26T02:14:38.909Z,68.38
2022-07-26T02:15:38.944Z,68.88
2022-07-26T02:16:38.907Z,68.18
2022-07-26T02:17:38.871Z,68.48
2022-07-26T02:18:38.863Z,67.98
2022-07-26T02:19:38.852Z,67.78
2022-07-26T02:20:38.848Z,67.78
2022-07-26T02:21:38.843Z,67.47
2022-07-26T02:22:38.823Z,67.58
2022-07-26T02:23:41.760Z,67.47
2022-07-26T02:24:38.804Z,67.38
2022-07-26T02:25:38.789Z,67.38
2022-07-26T02:26:38.803Z,67.18
2022-07-26T02:27:38.773Z,67.38
2022-07-26T02:28:38.769Z,66.77
2022-07-26T02:29:38.742Z,67.58
2022-07-26T02:30:38.746Z,67.07
2022-07-26T02:31:38.803Z,67.24
2022-07-26T02:32:38.727Z,67.04
2022-07-26T02:33:38.718Z,67.24
2022-07-26T02:34:38.702Z,66.77
2022-07-26T02:35:38.694Z,66.84
2022-07-26T02:36:38.700Z,66.84
2022-07-26T02:37:43.739Z,66.94
2022-07-26T02:38:39.670Z,66.57
2022-07-26T02:39:38.652Z,66.47
2022-07-26T02:40:38.631Z,66.57
2022-07-26T02:41:38.672Z,67.00
2022-07-26T02:42:38.627Z,66.80
2022-07-26T02:43:38.614Z,66.30
2022-07-26T02:44:38.592Z,66.10
2022-07-26T02:45:38.598Z,66.00
2022-07-26T02:46:38.641Z,66.17
2022-07-26T02:47:38.572Z,66.10
2022-07-26T02:48:38.614Z,66.20
2022-07-26T02:49:38.551Z,66.40
2022-07-26T02:50:38.546Z,66.40
2022-07-26T02:51:38.552Z,66.30
2022-07-26T02:52:38.515Z,66.37
2022-07-26T02:53:38.557Z,65.70
2022-07-26T02:54:38.506Z,66.40
2022-07-26T02:55:38.496Z,66.50
2022-07-26T02:56:38.501Z,66.10
2022-07-26T02:57:45.566Z,66.50
2022-07-26T02:58:39.464Z,66.30
2022-07-26T02:59:38.452Z,66.20
2022-07-26T03:00:38.436Z,66.20
2022-07-26T03:01:38.502Z,66.50
2022-07-26T03:02:38.467Z,66.20
2022-07-26T03:03:38.412Z,66.80
2022-07-26T03:04:38.400Z,66.80
2022-07-26T03:05:38.425Z,66.13
2022-07-26T03:06:38.399Z,66.00
2022-07-26T03:07:38.375Z,66.00
2022-07-26T03:08:38.362Z,66.30
2022-07-26T03:09:38.348Z,66.50
2022-07-26T03:10:38.342Z,66.30
2022-07-26T03:11:38.352Z,66.20
2022-07-26T03:12:38.322Z,66.10
2022-07-26T03:13:38.306Z,66.30
2022-07-26T03:14:38.301Z,66.10
2022-07-26T03:15:38.333Z,66.20
2022-07-26T03:16:38.321Z,67.11
2022-07-26T03:17:38.264Z,66.80
2022-07-26T03:18:38.264Z,66.71
2022-07-26T03:19:38.252Z,66.00
2022-07-26T03:20:38.233Z,66.10
2022-07-26T03:21:38.253Z,66.30
2022-07-26T03:22:38.229Z,66.10
2022-07-26T03:23:38.212Z,65.90
2022-07-26T03:24:38.198Z,66.10
2022-07-26T03:25:38.183Z,66.50
2022-07-26T03:26:39.198Z,66.40
2022-07-26T03:27:38.170Z,66.40
2022-07-26T03:28:38.162Z,66.50
2022-07-26T03:29:38.155Z,66.83
2022-07-26T03:30:38.162Z,67.03
2022-07-26T03:31:38.215Z,67.14
2022-07-26T03:32:38.124Z,67.03
2022-07-26T03:33:38.109Z,66.83
2022-07-26T03:34:38.101Z,67.14
2022-07-26T03:35:38.090Z,67.44
2022-07-26T03:36:38.089Z,67.44
2022-07-26T03:37:46.045Z,67.84
2022-07-26T03:38:39.057Z,67.64
2022-07-26T03:39:38.091Z,68.04
2022-07-26T03:40:38.028Z,68.35
2022-07-26T03:41:38.043Z,68.35
2022-07-26T03:42:38.041Z,69.18
2022-07-26T03:43:38.006Z,69.49
2022-07-26T03:44:37.995Z,68.88
2022-07-26T03:45:37.988Z,69.29
2022-07-26T03:46:38.028Z,69.09
2022-07-26T03:47:37.967Z,69.79
2022-07-26T03:48:38.000Z,68.98
2022-07-26T03:49:37.949Z,69.56
2022-07-26T03:50:37.938Z,69.35
2022-07-26T03:51:37.948Z,68.85
2022-07-26T03:52:37.905Z,68.24
2022-07-26T03:53:37.906Z,68.75
2022-07-26T03:54:37.899Z,69.35
2022-07-26T03:55:37.882Z,69.56
2022-07-26T03:56:37.942Z,69.76
2022-07-26T03:57:37.866Z,69.85
2022-07-26T03:58:37.854Z,69.76
2022-07-26T03:59:37.844Z,70.06
2022-07-26T04:00:37.832Z,69.79
2022-07-26T04:01:37.940Z,69.56
2022-07-26T04:02:37.882Z,70.26
2022-07-26T04:03:37.807Z,69.35
2022-07-26T04:04:37.795Z,69.85
2022-07-26T04:05:37.788Z,68.85
2022-07-26T04:06:37.793Z,69.15
2022-07-26T04:07:37.781Z,69.76
2022-07-26T04:08:37.746Z,69.05
2022-07-26T04:09:37.744Z,69.05
2022-07-26T04:10:37.729Z,68.75
2022-07-26T04:11:37.745Z,69.05
2022-07-26T04:12:37.701Z,68.55
2022-07-26T04:13:37.717Z,68.65
2022-07-26T04:14:37.700Z,68.55
2022-07-26T04:15:37.685Z,68.24
2022-07-26T04:16:42.940Z,68.24
2022-07-26T04:17:38.667Z,68.65
2022-07-26T04:18:37.654Z,68.15
2022-07-26T04:19:39.963Z,68.15
2022-07-26T04:20:37.629Z,68.04
2022-07-26T04:21:37.645Z,67.94
2022-07-26T04:22:37.621Z,68.04
2022-07-26T04:23:37.601Z,67.54
2022-07-26T04:24:37.605Z,67.74
2022-07-26T04:25:38.715Z,67.64
2022-07-26T04:26:37.595Z,67.84
2022-07-26T04:27:37.569Z,67.61
2022-07-26T04:28:37.559Z,68.24
2022-07-26T04:29:37.548Z,68.44
2022-07-26T04:30:37.586Z,68.24
2022-07-26T04:31:37.545Z,68.01
2022-07-26T04:32:37.510Z,67.91
2022-07-26T04:33:38.510Z,68.55
2022-07-26T04:34:37.495Z,68.44
2022-07-26T04:35:37.496Z,68.11
2022-07-26T04:36:37.481Z,68.04
2022-07-26T04:37:37.471Z,67.94
2022-07-26T04:38:37.449Z,68.24
2022-07-26T04:39:38.453Z,68.35
2022-07-26T04:40:40.813Z,67.91
2022-07-26T04:41:37.480Z,67.71
2022-07-26T04:42:37.423Z,67.91
2022-07-26T04:43:37.413Z,67.64
2022-07-26T04:44:37.397Z,68.15
2022-07-26T04:45:37.477Z,67.91
2022-07-26T04:46:37.497Z,68.15
2022-07-26T04:47:38.368Z,67.81
2022-07-26T04:48:37.402Z,67.91
2022-07-26T04:49:37.358Z,67.88
2022-07-26T04:50:37.349Z,68.11
2022-07-26T04:51:37.354Z,68.08
2022-07-26T04:52:37.321Z,68.48
2022-07-26T04:53:37.321Z,68.59
2022-07-26T04:54:37.306Z,68.08
2022-07-26T04:55:37.296Z,67.98
2022-07-26T04:56:37.306Z,67.58
2022-07-26T04:57:37.304Z,68.05
2022-07-26T04:58:37.264Z,68.08
2022-07-26T04:59:37.254Z,67.88
2022-07-26T05:00:51.368Z,67.35
2022-07-26T05:01:39.262Z,67.14
2022-07-26T05:02:37.345Z,67.35
2022-07-26T05:03:37.210Z,67.35
2022-07-26T05:04:37.201Z,67.14
2022-07-26T05:05:37.193Z,66.84
2022-07-26T05:06:37.187Z,66.84
2022-07-26T05:07:37.195Z,66.64
2022-07-26T05:08:37.168Z,66.14
2022-07-26T05:09:37.161Z,66.64
2022-07-26T05:10:37.142Z,66.61
2022-07-26T05:11:37.131Z,66.20
2022-07-26T05:12:37.147Z,66.61
2022-07-26T05:13:37.114Z,66.41
2022-07-26T05:14:37.104Z,66.20
2022-07-26T05:15:37.091Z,66.11
2022-07-26T05:16:39.077Z,66.41
2022-07-26T05:17:38.094Z,65.70
2022-07-26T05:18:45.715Z,65.80
2022-07-26T05:19:38.049Z,65.60
2022-07-26T05:20:37.032Z,65.37
2022-07-26T05:21:37.025Z,65.27
2022-07-26T05:22:37.043Z,65.17
2022-07-26T05:23:37.010Z,65.47
2022-07-26T05:24:36.992Z,65.57
2022-07-26T05:25:36.990Z,65.54
2022-07-26T05:26:36.986Z,65.54
2022-07-26T05:27:36.994Z,65.34
2022-07-26T05:28:36.960Z,65.14
2022-07-26T05:29:36.947Z,65.24
2022-07-26T05:30:36.990Z,64.91
2022-07-26T05:31:36.934Z,64.51
2022-07-26T05:32:53.103Z,64.61
2022-07-26T05:33:36.912Z,64.40
2022-07-26T05:34:36.905Z,64.51
2022-07-26T05:35:36.895Z,64.71
2022-07-26T05:36:36.894Z,63.93
2022-07-26T05:37:36.890Z,63.70
2022-07-26T05:38:36.879Z,62.50
2022-07-26T05:39:36.838Z,63.70
2022-07-26T05:40:36.841Z,63.37
2022-07-26T05:41:36.824Z,62.87
2022-07-26T05:42:36.839Z,62.47
2022-07-26T05:43:41.363Z,63.34
2022-07-26T05:44:42.517Z,62.94
2022-07-26T05:45:37.835Z,62.74
2022-07-26T05:46:36.829Z,62.64
2022-07-26T05:47:36.787Z,62.54
2022-07-26T05:48:36.829Z,61.74
2022-07-26T05:49:40.144Z,61.84
2022-07-26T05:50:36.745Z,61.77
2022-07-26T05:51:36.729Z,62.44
2022-07-26T05:52:36.742Z,62.47
2022-07-26T05:53:36.718Z,63.24
2022-07-26T05:54:36.712Z,62.34
2022-07-26T05:55:36.693Z,62.14
2022-07-26T05:56:36.685Z,62.41
2022-07-26T05:57:36.694Z,62.41
2022-07-26T05:58:36.670Z,62.44
2022-07-26T05:59:36.642Z,62.04
2022-07-26T06:00:36.650Z,61.74
2022-07-26T06:01:37.636Z,60.81
2022-07-26T06:02:36.756Z,61.21
2022-07-26T06:03:36.627Z,61.01
2022-07-26T06:04:36.652Z,61.21
2022-07-26T06:05:36.597Z,62.37
2022-07-26T06:06:36.595Z,62.97
2022-07-26T06:07:36.584Z,65.11
2022-07-26T06:08:36.566Z,64.61
2022-07-26T06:09:36.557Z,63.81
2022-07-26T06:10:36.563Z,65.31
2022-07-26T06:11:36.533Z,64.68
2022-07-26T06:12:36.549Z,63.37
2022-07-26T06:13:36.522Z,62.00
2022-07-26T06:14:36.508Z,64.34
2022-07-26T06:15:36.489Z,65.24
2022-07-26T06:16:36.513Z,64.97
2022-07-26T06:17:36.547Z,66.24
2022-07-26T06:18:36.477Z,64.67
2022-07-26T06:19:36.461Z,65.64
2022-07-26T06:20:36.455Z,66.01
2022-07-26T06:21:36.447Z,64.74
2022-07-26T06:22:36.473Z,64.94
2022-07-26T06:23:36.418Z,65.54
2022-07-26T06:24:36.420Z,64.64
2022-07-26T06:25:36.407Z,66.08
2022-07-26T06:26:36.423Z,64.94
2022-07-26T06:27:36.395Z,65.44
2022-07-26T06:28:36.377Z,66.14
2022-07-26T06:29:36.377Z,64.74
2022-07-26T06:30:36.358Z,64.47
2022-07-26T06:31:36.414Z,65.27
2022-07-26T06:32:36.351Z,64.97
2022-07-26T06:33:36.334Z,64.74
2022-07-26T06:34:36.320Z,64.51
2022-07-26T06:35:36.303Z,63.57
2022-07-26T06:36:36.302Z,63.24
2022-07-26T06:37:36.312Z,62.41
2022-07-26T06:38:36.286Z,60.68
2022-07-26T06:39:36.260Z,62.61
2022-07-26T06:40:36.278Z,63.34
2022-07-26T06:41:36.249Z,63.78
2022-07-26T06:42:36.253Z,63.60
2022-07-26T06:43:36.237Z,64.71
2022-07-26T06:44:36.214Z,63.31
2022-07-26T06:45:36.267Z,64.01
2022-07-26T06:46:36.203Z,65.01
2022-07-26T06:47:36.203Z,62.70
2022-07-26T06:48:36.235Z,63.70
2022-07-26T06:49:36.298Z,64.28
2022-07-26T06:50:36.169Z,63.07
2022-07-26T06:51:36.160Z,62.84
2022-07-26T06:52:36.165Z,62.74
2022-07-26T06:53:36.148Z,62.94
2022-07-26T06:54:36.126Z,63.24
2022-07-26T06:55:36.109Z,64.72
2022-07-26T06:56:36.105Z,62.71
2022-07-26T06:57:40.374Z,62.58
2022-07-26T06:58:37.085Z,61.54
2022-07-26T06:59:36.069Z,62.97
2022-07-26T07:00:36.071Z,62.50
2022-07-26T07:01:51.607Z,63.70
2022-07-26T07:02:37.085Z,64.71
2022-07-26T07:03:36.033Z,64.64
2022-07-26T07:04:36.053Z,64.43
2022-07-26T07:05:36.017Z,63.84
2022-07-26T07:06:36.040Z,64.27
2022-07-26T07:07:36.006Z,64.43
2022-07-26T07:08:36.007Z,64.43
2022-07-26T07:09:35.981Z,65.24
2022-07-26T07:10:35.993Z,63.84
2022-07-26T07:11:35.948Z,64.64
2022-07-26T07:12:35.961Z,64.64
2022-07-26T07:13:35.955Z,64.81
2022-07-26T07:14:35.932Z,65.07
2022-07-26T07:15:35.921Z,64.97
2022-07-26T07:16:35.973Z,65.67
2022-07-26T07:17:35.918Z,66.28
2022-07-26T07:18:35.894Z,64.74
2022-07-26T07:19:35.885Z,65.04
2022-07-26T07:20:35.874Z,64.97
2022-07-26T07:21:35.866Z,66.47
2022-07-26T07:22:35.906Z,66.24
2022-07-26T07:23:35.848Z,65.94
2022-07-26T07:24:37.123Z,66.24
2022-07-26T07:25:35.826Z,65.34
2022-07-26T07:26:36.940Z,64.64
2022-07-26T07:27:35.817Z,66.14
2022-07-26T07:28:35.795Z,66.24
2022-07-26T07:29:35.788Z,64.74
2022-07-26T07:30:35.787Z,64.74
2022-07-26T07:31:48.635Z,65.14
2022-07-26T07:32:36.845Z,65.54
2022-07-26T07:33:43.573Z,65.64
2022-07-26T07:34:36.739Z,65.14
2022-07-26T07:35:35.715Z,66.38
2022-07-26T07:36:35.722Z,66.55
2022-07-26T07:37:52.929Z,65.47
2022-07-26T07:38:37.380Z,66.47
2022-07-26T07:39:38.501Z,66.38
2022-07-26T07:40:35.706Z,66.17
2022-07-26T07:41:35.670Z,66.35
2022-07-26T07:42:35.679Z,66.11
2022-07-26T07:43:35.643Z,66.21
2022-07-26T07:44:35.643Z,64.87
2022-07-26T07:45:35.629Z,66.17
2022-07-26T07:46:35.656Z,66.08
2022-07-26T07:47:35.639Z,66.67
2022-07-26T07:48:35.670Z,67.05
2022-07-26T07:49:35.646Z,66.08
2022-07-26T07:50:35.590Z,66.64
2022-07-26T07:51:36.165Z,66.24
2022-07-26T07:52:35.578Z,66.35
2022-07-26T07:53:35.550Z,66.21
2022-07-26T07:54:35.564Z,65.51
2022-07-26T07:55:41.388Z,66.01
2022-07-26T07:56:37.528Z,65.91
2022-07-26T07:57:35.536Z,66.35
2022-07-26T07:58:35.497Z,66.78
2022-07-26T07:59:39.123Z,66.35
2022-07-26T08:00:35.505Z,66.78
2022-07-26T08:01:39.790Z,65.64
2022-07-26T08:02:36.498Z,66.28
2022-07-26T08:03:38.747Z,66.67
2022-07-26T08:04:35.560Z,66.64
2022-07-26T08:05:35.441Z,65.97
2022-07-26T08:06:35.429Z,66.08
2022-07-26T08:07:36.283Z,66.44
2022-07-26T08:08:35.422Z,65.88
2022-07-26T08:09:35.415Z,66.58
2022-07-26T08:10:35.390Z,66.58
2022-07-26T08:11:35.374Z,66.67
2022-07-26T08:12:35.407Z,65.97
2022-07-26T08:13:35.361Z,66.58
2022-07-26T08:14:35.392Z,66.78
2022-07-26T08:15:35.343Z,67.45
2022-07-26T08:16:35.366Z,66.35
2022-07-26T08:17:38.080Z,66.64
2022-07-26T08:18:36.491Z,67.75
2022-07-26T08:19:41.715Z,67.14
2022-07-26T08:20:36.291Z,66.88
2022-07-26T08:21:35.287Z,67.68
2022-07-26T08:22:35.267Z,68.08
2022-07-26T08:23:35.268Z,69.12
2022-07-26T08:24:35.248Z,69.15
2022-07-26T08:25:35.239Z,70.06
2022-07-26T08:26:35.227Z,69.62
2022-07-26T08:27:40.682Z,70.32
2022-07-26T08:28:59.570Z,70.63
2022-07-26T08:29:37.193Z,70.66
2022-07-26T08:30:35.179Z,71.90
2022-07-26T08:31:35.190Z,71.30
2022-07-26T08:32:35.157Z,72.03
2022-07-26T08:33:35.170Z,72.84
2022-07-26T08:34:35.133Z,74.15
2022-07-26T08:35:35.136Z,74.08
2022-07-26T08:36:35.120Z,73.98
2022-07-26T08:37:35.113Z,73.98
2022-07-26T08:38:35.112Z,74.29
2022-07-26T08:39:35.091Z,74.79
2022-07-26T08:40:35.075Z,75.19
2022-07-26T08:41:36.063Z,76.10
2022-07-26T08:42:35.064Z,76.54
2022-07-26T08:43:43.754Z,76.70
2022-07-26T08:44:36.036Z,76.10
2022-07-26T08:45:35.030Z,76.26
2022-07-26T08:46:35.100Z,75.79
2022-07-26T08:47:35.630Z,76.43
2022-07-26T08:48:38.698Z,77.14
2022-07-26T08:49:35.987Z,76.80
2022-07-26T08:50:34.976Z,76.10
2022-07-26T08:51:34.971Z,76.60
2022-07-26T08:52:34.981Z,75.90
2022-07-26T08:53:35.036Z,76.50
2022-07-26T08:54:34.997Z,76.26
2022-07-26T08:55:56.758Z,75.12
2022-07-26T08:56:36.924Z,74.72
2022-07-26T08:57:35.003Z,74.65
2022-07-26T08:58:34.960Z,74.92
2022-07-26T08:59:34.891Z,74.72
2022-07-26T09:00:34.978Z,75.02
2022-07-26T09:01:35.001Z,74.32
2022-07-26T09:02:34.886Z,74.95
2022-07-26T09:03:34.991Z,74.72
2022-07-26T09:04:41.464Z,74.41
2022-07-26T09:05:36.833Z,74.32
2022-07-26T09:06:34.899Z,74.72
2022-07-26T09:07:34.838Z,74.92
2022-07-26T09:08:34.897Z,75.02
2022-07-26T09:09:34.893Z,74.68
2022-07-26T09:10:39.007Z,74.11
2022-07-26T09:11:34.894Z,74.72
2022-07-26T09:12:34.821Z,74.52
2022-07-26T09:13:34.876Z,74.28
2022-07-26T09:14:34.834Z,73.88
2022-07-26T09:15:34.799Z,73.34
2022-07-26T09:16:39.266Z,73.04
2022-07-26T09:17:36.708Z,72.84
2022-07-26T09:18:34.844Z,73.18
2022-07-26T09:19:35.675Z,72.87
2022-07-26T09:20:34.787Z,73.38
2022-07-26T09:21:34.745Z,73.24
2022-07-26T09:22:34.739Z,71.90
2022-07-26T09:23:34.738Z,72.50
2022-07-26T09:24:34.762Z,71.09
2022-07-26T09:25:34.717Z,71.40
2022-07-26T09:26:35.674Z,72.13
2022-07-26T09:27:34.665Z,72.24
2022-07-26T09:28:34.763Z,71.43
2022-07-26T09:29:34.595Z,70.93
2022-07-26T09:30:34.707Z,70.89
2022-07-26T09:31:35.350Z,70.50
2022-07-26T09:32:35.176Z,70.59
2022-07-26T09:33:35.182Z,71.09
2022-07-26T09:34:34.722Z,71.40
2022-07-26T09:35:52.094Z,70.50
2022-07-26T09:36:36.531Z,70.70
2022-07-26T09:37:34.507Z,70.23
2022-07-26T09:38:34.509Z,71.00
2022-07-26T09:39:34.607Z,71.06
2022-07-26T09:40:34.559Z,70.16
2022-07-26T09:41:34.482Z,70.26
2022-07-26T09:42:34.466Z,69.32
2022-07-26T09:43:34.454Z,69.73
2022-07-26T09:44:34.438Z,68.72
2022-07-26T09:45:35.430Z,68.42
2022-07-26T09:46:34.504Z,68.08
2022-07-26T09:47:34.414Z,69.09
2022-07-26T09:48:59.366Z,66.99
2022-07-26T09:49:40.567Z,67.45
2022-07-26T09:50:34.388Z,68.55
2022-07-26T09:51:34.370Z,65.82
2022-07-26T09:52:34.365Z,65.78
2022-07-26T09:53:34.396Z,67.39
2022-07-26T09:54:34.352Z,66.36
2022-07-26T09:55:44.248Z,66.16
2022-07-26T09:56:35.333Z,65.36
2022-07-26T09:57:34.323Z,65.36
2022-07-26T09:58:34.343Z,66.05
2022-07-26T09:59:34.289Z,64.42
2022-07-26T10:00:34.305Z,64.39
2022-07-26T10:01:34.346Z,63.53
2022-07-26T10:02:34.322Z,64.22
2022-07-26T10:03:34.284Z,64.92
2022-07-26T10:04:34.268Z,63.79
2022-07-26T10:05:34.256Z,62.99
2022-07-26T10:06:34.247Z,64.29
2022-07-26T10:07:34.219Z,62.86
2022-07-26T10:08:34.238Z,62.37
2022-07-26T10:09:34.236Z,62.34
2022-07-26T10:10:34.200Z,63.23
2022-07-26T10:11:34.195Z,62.01
2022-07-26T10:12:34.174Z,61.00
2022-07-26T10:13:34.176Z,60.91
2022-07-26T10:14:34.156Z,64.26
2022-07-26T10:15:34.146Z,63.19
2022-07-26T10:16:34.224Z,64.59
2022-07-26T10:17:35.269Z,63.39
2022-07-26T10:18:34.142Z,62.09
2022-07-26T10:19:37.812Z,62.72
2022-07-26T10:20:35.103Z,63.56
2022-07-26T10:21:35.080Z,63.65
2022-07-26T10:22:34.078Z,62.98
2022-07-26T10:23:34.066Z,65.05
2022-07-26T10:24:34.052Z,64.22
2022-07-26T10:25:34.040Z,62.32
2022-07-26T10:26:34.084Z,62.19
2022-07-26T10:27:34.018Z,62.52
2022-07-26T10:28:34.016Z,62.12
2022-07-26T10:29:34.020Z,60.72
2022-07-26T10:30:35.316Z,60.82
2022-07-26T10:31:35.032Z,60.75
2022-07-26T10:32:33.972Z,61.15
2022-07-26T10:33:33.954Z,61.52
2022-07-26T10:34:33.979Z,62.25
2022-07-26T10:35:33.926Z,61.62
2022-07-26T10:36:33.928Z,61.12
2022-07-26T10:37:33.926Z,60.42
2022-07-26T10:38:33.910Z,60.82
2022-07-26T10:39:33.911Z,61.02
2022-07-26T10:40:33.884Z,61.19
2022-07-26T10:41:33.880Z,61.16
2022-07-26T10:42:33.858Z,60.59
2022-07-26T10:43:42.021Z,61.09
2022-07-26T10:44:35.852Z,61.19
2022-07-26T10:45:33.836Z,59.66
2022-07-26T10:46:33.933Z,59.34
2022-07-26T10:47:35.514Z,58.89
2022-07-26T10:48:33.909Z,60.49
2022-07-26T10:49:33.832Z,59.17
2022-07-26T10:50:33.786Z,60.29
2022-07-26T10:51:33.789Z,60.77
2022-07-26T10:52:33.771Z,57.07
2022-07-26T10:53:33.766Z,58.06
2022-07-26T10:54:33.766Z,56.71
2022-07-26T10:55:33.730Z,56.54
2022-07-26T10:56:34.213Z,56.67
2022-07-26T10:57:33.724Z,56.27
2022-07-26T10:58:33.709Z,56.14
2022-07-26T10:59:54.787Z,57.71
2022-07-26T11:00:35.681Z,56.31
2022-07-26T11:01:33.777Z,56.71
2022-07-26T11:02:33.687Z,55.11
2022-07-26T11:03:38.483Z,55.02
2022-07-26T11:04:34.661Z,54.71
2022-07-26T11:05:33.640Z,54.54
2022-07-26T11:06:33.631Z,54.82
2022-07-26T11:07:33.611Z,55.09
2022-07-26T11:08:33.602Z,54.53
2022-07-26T11:09:33.629Z,53.91
2022-07-26T11:10:33.587Z,54.71
2022-07-26T11:11:33.592Z,53.81
2022-07-26T11:12:33.585Z,54.04
2022-07-26T11:13:33.571Z,54.46
2022-07-26T11:14:33.576Z,54.41
2022-07-26T11:15:33.609Z,55.44
2022-07-26T11:16:33.559Z,54.61
2022-07-26T11:17:33.521Z,55.44
2022-07-26T11:18:33.542Z,55.14
2022-07-26T11:19:33.514Z,55.54
2022-07-26T11:20:33.499Z,56.41
2022-07-26T11:21:33.538Z,55.79
2022-07-26T11:22:33.479Z,56.38
2022-07-26T11:23:33.462Z,55.29
2022-07-26T11:24:33.487Z,55.39
2022-07-26T11:25:33.444Z,56.98
2022-07-26T11:26:34.448Z,55.26
2022-07-26T11:27:33.429Z,54.19
2022-07-26T11:28:33.419Z,55.32
2022-07-26T11:29:38.891Z,56.41
2022-07-26T11:30:34.400Z,55.49
2022-07-26T11:31:51.120Z,54.39
2022-07-26T11:32:34.446Z,55.51
2022-07-26T11:33:33.368Z,54.32
2022-07-26T11:34:33.438Z,55.41
2022-07-26T11:35:33.361Z,55.29
2022-07-26T11:36:33.344Z,53.06
2022-07-26T11:37:33.333Z,51.47
2022-07-26T11:38:33.310Z,52.57
2022-07-26T11:39:33.344Z,52.84
2022-07-26T11:40:33.305Z,52.22
2022-07-26T11:41:34.950Z,51.72
2022-07-26T11:42:33.279Z,52.55
2022-07-26T11:43:33.301Z,52.32
2022-07-26T11:44:33.274Z,52.72
2022-07-26T11:45:33.249Z,52.72
2022-07-26T11:46:33.405Z,51.82
2022-07-26T11:47:33.242Z,52.94
2022-07-26T11:48:33.240Z,53.31
2022-07-26T11:49:52.355Z,52.51
2022-07-26T11:50:35.193Z,51.17
2022-07-26T11:51:33.195Z,48.48
2022-07-26T11:52:33.365Z,50.37
2022-07-26T11:53:33.209Z,49.20
2022-07-26T11:54:33.172Z,49.87
2022-07-26T11:55:33.153Z,46.56
2022-07-26T11:56:33.145Z,44.76
2022-07-26T11:57:33.191Z,46.54
2022-07-26T11:58:33.127Z,46.73
2022-07-26T11:59:33.150Z,46.46
2022-07-26T12:00:33.100Z,46.26
2022-07-26T12:01:33.134Z,46.84
2022-07-26T12:02:33.079Z,49.33
2022-07-26T12:03:33.079Z,47.83
2022-07-26T12:04:33.143Z,47.24
2022-07-26T12:05:33.104Z,46.44
2022-07-26T12:06:33.038Z,47.93
2022-07-26T12:07:33.039Z,45.84
2022-07-26T12:08:33.037Z,46.96
2022-07-26T12:09:33.036Z,46.86
2022-07-26T12:10:33.000Z,47.98
2022-07-26T12:11:32.996Z,48.25
2022-07-26T12:12:32.980Z,48.13
2022-07-26T12:13:39.732Z,46.73
2022-07-26T12:14:33.978Z,48.75
2022-07-26T12:15:32.990Z,46.84
2022-07-26T12:16:33.071Z,48.41
2022-07-26T12:17:34.973Z,46.94
2022-07-26T12:18:32.922Z,48.95
2022-07-26T12:19:32.938Z,48.13
2022-07-26T12:20:32.897Z,47.11
2022-07-26T12:21:32.907Z,48.25
2022-07-26T12:22:32.887Z,48.33
2022-07-26T12:23:32.881Z,49.15
2022-07-26T12:24:32.886Z,49.10
2022-07-26T12:25:32.867Z,48.31
2022-07-26T12:26:32.870Z,48.01
2022-07-26T12:27:32.843Z,48.91
2022-07-26T12:28:32.839Z,48.19
2022-07-26T12:29:32.850Z,48.88
2022-07-26T12:30:32.907Z,48.46
2022-07-26T12:31:33.071Z,47.37
2022-07-26T12:32:32.804Z,49.95
2022-07-26T12:33:32.796Z,48.44
2022-07-26T12:34:32.796Z,49.04
2022-07-26T12:35:32.841Z,49.13
2022-07-26T12:36:32.773Z,49.58
2022-07-26T12:37:40.102Z,50.20
2022-07-26T12:38:34.696Z,52.51
2022-07-26T12:39:32.753Z,54.14
2022-07-26T12:40:32.718Z,56.51
2022-07-26T12:41:32.789Z,57.74
2022-07-26T12:42:33.249Z,59.44
2022-07-26T12:43:32.844Z,60.24
2022-07-26T12:44:33.144Z,59.74
2022-07-26T12:45:32.699Z,59.83
2022-07-26T12:46:32.731Z,60.77
2022-07-26T12:47:32.736Z,61.07
2022-07-26T12:48:32.753Z,60.59
2022-07-26T12:49:32.742Z,61.72
2022-07-26T12:50:32.659Z,61.69
2022-07-26T12:51:32.648Z,62.25
2022-07-26T12:52:33.125Z,63.15